createdAt,value
2019-01-05T00:01:46.146Z,5.80
2019-01-05T00:04:40.768Z,6.13
2019-01-05T00:07:29.381Z,5.63
2019-01-05T00:10:17.112Z,6.30
2019-01-05T00:13:06.280Z,5.97
2019-01-05T00:16:14.083Z,5.50
2019-01-05T00:19:13.287Z,6.40
2019-01-05T00:22:03.272Z,6.60
2019-01-05T00:24:52.234Z,6.40
2019-01-05T00:27:44.341Z,6.57
2019-01-05T00:30:33.239Z,6.00
2019-01-05T00:33:32.024Z,5.73
2019-01-05T00:36:33.274Z,6.20
2019-01-05T00:39:30.633Z,5.20
2019-01-05T00:42:25.944Z,6.10
2019-01-05T00:45:26.179Z,6.10
2019-01-05T00:48:15.546Z,5.60
2019-01-05T00:51:05.327Z,6.17
2019-01-05T00:54:19.073Z,5.80
2019-01-05T00:57:07.825Z,7.23
2019-01-05T01:00:01.218Z,7.40
2019-01-05T01:03:03.227Z,7.03
2019-01-05T01:05:55.995Z,7.50
2019-01-05T01:08:48.253Z,7.50
2019-01-05T01:11:39.286Z,7.27
2019-01-05T01:14:34.775Z,7.23
2019-01-05T01:17:39.522Z,7.50
2019-01-05T01:20:27.444Z,6.77
2019-01-05T01:23:30.154Z,7.57
2019-01-05T01:26:29.331Z,8.00
2019-01-05T01:29:19.825Z,8.30
2019-01-05T01:32:15.243Z,7.33
2019-01-05T01:35:15.826Z,8.10
2019-01-05T01:38:52.769Z,8.33
2019-01-05T01:42:05.916Z,8.10
2019-01-05T01:44:58.133Z,6.93
2019-01-05T01:47:51.190Z,7.80
2019-01-05T01:50:40.767Z,7.73
2019-01-05T01:53:35.259Z,6.63
2019-01-05T01:56:25.251Z,7.60
2019-01-05T01:59:16.871Z,6.30
2019-01-05T02:02:22.012Z,6.63
2019-01-05T02:05:17.960Z,5.27
2019-01-05T02:08:16.755Z,5.53
2019-01-05T02:11:24.533Z,5.40
2019-01-05T02:14:18.414Z,5.80
2019-01-05T02:17:55.093Z,6.00
2019-01-05T02:20:53.066Z,5.37
2019-01-05T02:24:32.000Z,5.30
2019-01-05T02:28:23.018Z,5.70
2019-01-05T02:31:51.122Z,5.03
2019-01-05T02:35:04.840Z,4.83
2019-01-05T02:38:42.594Z,4.30
2019-01-05T02:41:59.986Z,3.97
2019-01-05T02:46:13.345Z,3.80
2019-01-05T02:49:47.118Z,3.53
2019-01-05T02:53:09.476Z,3.30
2019-01-05T02:56:58.146Z,2.67
2019-01-05T03:00:28.776Z,2.47
2019-01-05T03:04:10.168Z,2.50
2019-01-05T03:07:34.301Z,2.17
2019-01-05T03:11:19.525Z,2.73
2019-01-05T03:14:55.527Z,2.37
2019-01-05T03:18:46.109Z,2.00
2019-01-05T03:22:11.346Z,2.30
2019-01-05T03:25:59.790Z,1.87
2019-01-05T03:30:12.836Z,1.80
2019-01-05T03:33:48.264Z,1.93
2019-01-05T03:37:20.036Z,1.83
2019-01-05T03:40:47.993Z,2.10
2019-01-05T03:44:32.374Z,1.97
2019-01-05T03:48:14.784Z,1.70
2019-01-05T03:51:39.405Z,1.83
2019-01-05T03:55:29.082Z,1.90
2019-01-05T03:59:03.714Z,1.70
2019-01-05T04:02:48.185Z,1.67
2019-01-05T04:06:12.778Z,1.73
2019-01-05T04:09:43.929Z,1.70
2019-01-05T04:13:28.418Z,1.60
2019-01-05T04:16:55.650Z,1.67
2019-01-05T04:20:30.930Z,1.10
2019-01-05T04:24:03.077Z,1.00
2019-01-05T04:27:56.268Z,1.37
2019-01-05T04:31:29.850Z,1.40
2019-01-05T04:35:01.822Z,1.30
2019-01-05T04:38:38.707Z,1.10
2019-01-05T04:42:23.683Z,1.27
2019-01-05T04:46:12.142Z,1.27
2019-01-05T04:49:34.507Z,1.20
2019-01-05T04:53:14.032Z,0.90
2019-01-05T04:56:47.646Z,1.00
2019-01-05T05:00:26.580Z,1.10
2019-01-05T05:03:59.293Z,1.07
2019-01-05T05:07:46.287Z,1.40
2019-01-05T05:11:26.887Z,1.20
2019-01-05T05:14:59.243Z,1.10
2019-01-05T05:18:15.646Z,1.07
2019-01-05T05:21:50.893Z,1.17
2019-01-05T05:25:50.105Z,1.27
2019-01-05T05:29:21.663Z,1.27
2019-01-05T05:33:26.813Z,1.10
2019-01-05T05:37:14.891Z,1.10
2019-01-05T05:40:42.637Z,1.20
2019-01-05T05:44:23.821Z,1.40
2019-01-05T05:47:39.815Z,2.13
2019-01-05T05:51:37.386Z,1.67
2019-01-05T05:55:06.312Z,1.60
2019-01-05T05:58:42.518Z,2.03
2019-01-05T06:02:17.195Z,1.17
2019-01-05T06:05:51.208Z,1.40
2019-01-05T06:09:29.732Z,1.57
2019-01-05T06:13:14.840Z,1.47
2019-01-05T06:16:50.467Z,1.50
2019-01-05T06:20:30.426Z,1.30
2019-01-05T06:24:00.173Z,1.67
2019-01-05T06:27:29.045Z,1.50
2019-01-05T06:30:50.790Z,1.40
2019-01-05T06:34:36.181Z,1.67
2019-01-05T06:38:03.726Z,1.40
2019-01-05T06:41:43.622Z,1.70
2019-01-05T06:45:06.633Z,1.53
2019-01-05T06:48:59.503Z,1.50
2019-01-05T06:52:35.285Z,1.60
2019-01-05T06:55:52.181Z,1.70
2019-01-05T06:59:16.641Z,1.47
2019-01-05T07:02:51.821Z,1.80
2019-01-05T07:06:33.009Z,2.23
2019-01-05T07:10:10.305Z,2.10
2019-01-05T07:13:55.381Z,2.90
2019-01-05T07:17:37.387Z,3.13
2019-01-05T07:21:00.496Z,2.47
2019-01-05T07:24:47.268Z,2.70
2019-01-05T07:28:43.405Z,2.73
2019-01-05T07:32:00.540Z,2.93
2019-01-05T07:35:57.178Z,3.03
2019-01-05T07:39:28.421Z,3.57
2019-01-05T07:43:08.118Z,4.10
2019-01-05T07:46:38.921Z,3.07
2019-01-05T07:50:02.737Z,3.80
2019-01-05T07:53:42.562Z,3.00
2019-01-05T07:57:36.265Z,3.80
2019-01-05T08:01:29.105Z,4.33
2019-01-05T08:05:20.324Z,3.83
2019-01-05T08:09:13.183Z,3.73
2019-01-05T08:13:00.545Z,4.07
2019-01-05T08:16:51.328Z,3.30
2019-01-05T08:20:29.035Z,3.30
2019-01-05T08:23:50.014Z,2.40
2019-01-05T08:27:21.965Z,4.20
2019-01-05T08:30:45.694Z,3.20
2019-01-05T08:34:09.702Z,2.80
2019-01-05T08:37:46.563Z,2.67
2019-01-05T08:41:20.785Z,3.10
2019-01-05T08:45:04.871Z,2.70
2019-01-05T08:48:55.678Z,2.80
2019-01-05T08:52:55.398Z,3.27
2019-01-05T08:56:15.363Z,3.00
2019-01-05T08:59:48.358Z,2.30
2019-01-05T09:03:18.287Z,2.60
2019-01-05T09:07:13.121Z,2.80
2019-01-05T09:11:00.316Z,2.70
2019-01-05T09:14:31.274Z,2.87
2019-01-05T09:18:06.737Z,2.87
2019-01-05T09:21:38.071Z,2.27
2019-01-05T09:25:01.281Z,2.70
2019-01-05T09:28:45.494Z,2.53
2019-01-05T09:32:38.151Z,2.17
2019-01-05T09:36:18.313Z,2.40
2019-01-05T09:40:05.869Z,2.40
2019-01-05T09:43:48.902Z,2.87
2019-01-05T09:47:40.108Z,2.03
2019-01-05T09:51:55.285Z,1.80
2019-01-05T09:55:45.074Z,3.23
2019-01-05T09:59:16.443Z,2.40
2019-01-05T10:02:43.897Z,1.97
2019-01-05T10:05:59.483Z,2.30
2019-01-05T10:09:50.093Z,1.70
2019-01-05T10:13:22.371Z,2.27
2019-01-05T10:16:58.332Z,2.37
2019-01-05T10:20:25.182Z,2.40
2019-01-05T10:24:04.552Z,1.80
2019-01-05T10:27:33.014Z,1.83
2019-01-05T10:31:32.648Z,2.13
2019-01-05T10:35:07.908Z,1.40
2019-01-05T10:38:49.321Z,1.60
2019-01-05T10:42:18.583Z,2.00
2019-01-05T10:46:15.953Z,2.13
2019-01-05T10:50:03.687Z,1.80
2019-01-05T10:53:54.295Z,1.70
2019-01-05T10:57:32.000Z,1.50
2019-01-05T11:01:20.547Z,1.80
2019-01-05T11:04:40.325Z,2.20
2019-01-05T11:11:25.805Z,1.70
2019-01-05T11:14:50.781Z,2.30
2019-01-05T11:18:32.804Z,1.80
2019-01-05T11:21:37.981Z,1.73
2019-01-05T11:25:05.240Z,2.00
2019-01-05T11:28:44.935Z,1.80
2019-01-05T11:32:07.285Z,1.97
2019-01-05T11:35:53.389Z,2.10
2019-01-05T11:39:42.297Z,2.00
2019-01-05T11:43:38.312Z,1.80
2019-01-05T11:47:24.204Z,1.40
2019-01-05T11:50:45.296Z,2.43
2019-01-05T11:54:42.662Z,2.10
2019-01-05T11:58:12.995Z,1.90
2019-01-05T12:01:50.489Z,2.30
2019-01-05T12:05:38.235Z,1.60
2019-01-05T12:09:15.326Z,1.90
2019-01-05T12:12:54.465Z,2.17
2019-01-05T12:16:40.656Z,1.60
2019-01-05T12:20:05.894Z,1.40
2019-01-05T12:23:32.436Z,1.40
2019-01-05T12:27:13.138Z,1.80
2019-01-05T12:31:04.949Z,1.83
2019-01-05T12:34:37.329Z,1.67
2019-01-05T12:38:36.183Z,2.10
2019-01-05T12:42:10.763Z,1.80
2019-01-05T12:45:51.863Z,1.70
2019-01-05T12:49:25.914Z,1.70
2019-01-05T12:56:40.627Z,2.20
2019-01-05T13:00:22.440Z,2.17
2019-01-05T13:04:12.688Z,1.53
2019-01-05T13:11:18.357Z,2.53
2019-01-05T13:14:40.233Z,2.10
2019-01-05T13:18:54.669Z,1.70
2019-01-05T13:22:02.472Z,1.37
2019-01-05T13:25:35.063Z,1.80
2019-01-05T13:29:17.658Z,1.57
2019-01-05T13:32:31.073Z,1.83
2019-01-05T13:36:05.644Z,1.43
2019-01-05T13:39:44.974Z,1.90
2019-01-05T13:43:16.468Z,1.73
2019-01-05T13:46:39.448Z,2.87
2019-01-05T13:50:32.376Z,2.20
2019-01-05T13:53:52.068Z,1.50
2019-01-05T13:57:02.734Z,1.60
2019-01-05T14:00:07.649Z,1.60
2019-01-05T14:03:05.203Z,1.47
2019-01-05T14:06:14.381Z,1.90
2019-01-05T14:09:14.739Z,2.00
2019-01-05T14:12:00.775Z,1.80
2019-01-05T14:14:58.253Z,1.70
2019-01-05T14:17:52.274Z,2.17
2019-01-05T14:20:48.048Z,1.63
2019-01-05T14:23:45.381Z,2.03
2019-01-05T14:26:33.890Z,2.00
2019-01-05T14:29:22.188Z,2.10
2019-01-05T14:32:16.717Z,1.83
2019-01-05T14:35:08.462Z,2.10
2019-01-05T14:37:59.023Z,1.80
2019-01-05T14:40:54.049Z,1.90
2019-01-05T14:43:46.094Z,2.93
2019-01-05T14:46:50.132Z,2.00
2019-01-05T14:49:44.780Z,1.80
2019-01-05T14:52:33.728Z,1.73
2019-01-05T14:55:23.518Z,2.00
2019-01-05T14:58:11.845Z,1.70
2019-01-05T15:00:59.783Z,2.00
2019-01-05T15:03:54.901Z,2.17
2019-01-05T15:06:51.344Z,2.33
2019-01-05T15:09:48.016Z,2.73
2019-01-05T15:12:42.493Z,2.40
2019-01-05T15:15:33.836Z,2.33
2019-01-05T15:18:31.170Z,2.40
2019-01-05T15:21:21.367Z,2.47
2019-01-05T15:24:10.734Z,2.10
2019-01-05T15:27:07.068Z,1.97
2019-01-05T15:29:55.009Z,2.10
2019-01-05T15:33:03.016Z,2.40
2019-01-05T15:35:56.484Z,2.43
2019-01-05T15:38:46.433Z,2.10
2019-01-05T15:41:32.011Z,2.13
2019-01-05T15:44:34.874Z,2.03
2019-01-05T15:47:24.004Z,2.40
2019-01-05T15:50:15.952Z,2.57
2019-01-05T15:53:05.119Z,2.43
2019-01-05T15:56:07.056Z,2.53
2019-01-05T15:58:54.851Z,2.97
2019-01-05T16:01:43.471Z,2.17
2019-01-05T16:04:30.953Z,3.23
2019-01-05T16:07:19.361Z,2.40
2019-01-05T16:10:17.240Z,2.30
2019-01-05T16:13:15.833Z,2.40
2019-01-05T16:16:04.886Z,2.30
2019-01-05T16:19:00.610Z,2.20
2019-01-05T16:21:49.977Z,2.13
2019-01-05T16:24:37.901Z,2.90
2019-01-05T16:27:27.084Z,2.37
2019-01-05T16:30:35.295Z,2.70
2019-01-05T16:33:18.523Z,2.60
2019-01-05T16:36:07.486Z,2.60
2019-01-05T16:38:55.585Z,2.47
2019-01-05T16:41:57.697Z,3.10
2019-01-05T16:45:07.437Z,2.87
2019-01-05T16:48:18.037Z,4.00
2019-01-05T16:51:37.319Z,3.13
2019-01-05T16:54:42.489Z,2.83
2019-01-05T17:00:27.232Z,3.10
2019-01-05T17:03:14.962Z,3.50
2019-01-05T17:06:31.811Z,3.23
2019-01-05T17:09:24.425Z,2.70
2019-01-05T17:12:29.436Z,3.17
2019-01-05T17:15:20.793Z,2.83
2019-01-05T17:18:21.346Z,2.90
2019-01-05T17:21:10.267Z,2.80
2019-01-05T17:24:33.013Z,2.63
2019-01-05T17:27:28.241Z,2.47
2019-01-05T17:30:25.432Z,2.60
2019-01-05T17:33:21.324Z,2.60
2019-01-05T17:36:26.729Z,3.10
2019-01-05T17:39:27.716Z,3.23
2019-01-05T17:42:26.103Z,3.20
2019-01-05T17:45:27.984Z,3.20
2019-01-05T17:48:17.325Z,3.30
2019-01-05T17:51:18.789Z,3.37
2019-01-05T17:54:09.626Z,3.23
2019-01-05T17:57:07.977Z,3.70
2019-01-05T18:00:04.099Z,3.60
2019-01-05T18:02:58.943Z,3.37
2019-01-05T18:05:48.737Z,3.47
2019-01-05T18:08:54.667Z,3.60
2019-01-05T18:11:52.534Z,3.53
2019-01-05T18:14:58.950Z,3.60
2019-01-05T18:17:59.849Z,3.30
2019-01-05T18:20:45.425Z,4.87
2019-01-05T18:23:40.118Z,4.10
2019-01-05T18:26:27.757Z,3.90
2019-01-05T18:29:33.418Z,4.10
2019-01-05T18:32:24.521Z,3.87
2019-01-05T18:35:15.561Z,3.90
2019-01-05T18:38:03.291Z,3.40
2019-01-05T18:40:55.070Z,3.33
2019-01-05T18:43:49.177Z,3.20
2019-01-05T18:46:42.610Z,3.90
2019-01-05T18:49:30.585Z,3.67
2019-01-05T18:52:25.001Z,3.73
2019-01-05T18:55:13.245Z,3.60
2019-01-05T18:58:01.886Z,3.87
2019-01-05T19:00:53.782Z,3.87
2019-01-05T19:03:39.941Z,3.93
2019-01-05T19:06:41.481Z,4.13
2019-01-05T19:09:39.798Z,4.20
2019-01-05T19:12:47.571Z,4.07
2019-01-05T19:15:39.652Z,4.30
2019-01-05T19:18:27.384Z,3.67
2019-01-05T19:21:18.023Z,3.90
2019-01-05T19:24:25.425Z,4.30
2019-01-05T19:27:16.725Z,3.90
2019-01-05T19:30:06.245Z,5.23
2019-01-05T19:32:56.408Z,3.83
2019-01-05T19:35:57.698Z,3.60
2019-01-05T19:38:48.470Z,4.03
2019-01-05T19:41:43.979Z,4.10
2019-01-05T19:44:33.345Z,3.50
2019-01-05T19:47:35.211Z,3.97
2019-01-05T19:50:23.769Z,4.53
2019-01-05T19:53:17.641Z,4.50
2019-01-05T19:56:19.300Z,3.33
2019-01-05T19:59:17.503Z,3.20
2019-01-05T20:02:19.548Z,3.40
2019-01-05T20:05:20.798Z,3.20
2019-01-05T20:08:22.951Z,2.70
2019-01-05T20:11:12.049Z,3.00
2019-01-05T20:14:07.972Z,3.37
2019-01-05T20:17:09.634Z,3.47
2019-01-05T20:20:01.053Z,3.80
2019-01-05T20:25:23.014Z,3.20
2019-01-05T20:28:11.567Z,2.93
2019-01-05T20:31:03.806Z,3.17
2019-01-05T20:33:59.529Z,2.60
2019-01-05T20:37:00.984Z,2.60
2019-01-05T20:40:03.261Z,2.90
2019-01-05T20:42:51.811Z,2.90
2019-01-05T20:45:45.112Z,2.10
2019-01-05T20:48:35.585Z,2.53
2019-01-05T20:51:23.816Z,2.80
2019-01-05T20:54:28.576Z,3.10
2019-01-05T20:57:19.999Z,2.67
2019-01-05T21:06:35.434Z,2.70
2019-01-05T21:09:44.540Z,2.60
2019-01-05T21:12:34.549Z,2.80
2019-01-05T21:15:30.893Z,2.70
2019-01-05T21:18:21.264Z,2.20
2019-01-05T21:21:09.200Z,2.80
2019-01-05T21:24:00.205Z,2.57
2019-01-05T21:26:55.522Z,2.50
2019-01-05T21:29:48.399Z,2.23
2019-01-05T21:32:49.621Z,2.47
2019-01-05T21:35:39.450Z,2.50
2019-01-05T21:38:34.930Z,2.03
2019-01-05T21:41:23.892Z,2.20
2019-01-05T21:44:11.846Z,2.30
2019-01-05T21:47:00.593Z,2.33
2019-01-05T21:49:51.599Z,2.37
2019-01-05T21:52:44.656Z,1.73
2019-01-05T21:55:52.664Z,2.40
2019-01-05T21:58:45.253Z,1.90
2019-01-05T22:01:40.215Z,2.10
2019-01-05T22:04:58.816Z,1.97
2019-01-05T22:07:47.015Z,2.27
2019-01-05T22:10:36.388Z,2.00
2019-01-05T22:13:38.048Z,2.27
2019-01-05T22:16:30.517Z,2.00
2019-01-05T22:19:18.235Z,2.20
2019-01-05T22:22:07.825Z,2.10
2019-01-05T22:25:15.403Z,2.13
2019-01-05T22:28:07.487Z,2.00
2019-01-05T22:30:55.169Z,2.30
2019-01-05T22:33:47.644Z,2.13
2019-01-05T22:36:50.537Z,2.00
2019-01-05T22:39:43.407Z,1.90
2019-01-05T22:42:31.068Z,1.97
2019-01-05T22:45:19.438Z,2.40
2019-01-05T22:48:19.049Z,2.57
2019-01-05T22:51:02.658Z,2.17
2019-01-05T22:53:53.067Z,2.30
2019-01-05T22:56:41.316Z,1.90
2019-01-05T22:59:27.929Z,2.00
2019-01-05T23:02:19.468Z,2.03
2019-01-05T23:05:20.310Z,2.70
2019-01-05T23:08:28.318Z,1.90
2019-01-05T23:11:34.282Z,2.30
2019-01-05T23:14:21.209Z,2.60
2019-01-05T23:21:10.790Z,2.77
2019-01-05T23:24:05.702Z,2.03
2019-01-05T23:26:56.497Z,1.90
2019-01-05T23:29:44.444Z,2.40
2019-01-05T23:32:33.819Z,1.80
2019-01-05T23:35:26.258Z,1.70
2019-01-05T23:38:31.438Z,1.47
2019-01-05T23:41:19.134Z,1.80
2019-01-05T23:44:08.301Z,1.70
2019-01-05T23:47:15.490Z,1.80
2019-01-05T23:50:05.066Z,1.60
2019-01-05T23:52:59.354Z,1.70
2019-01-05T23:55:47.906Z,1.93
2019-01-05T23:58:50.999Z,1.63
